Aérodrome :
LOGIN :

S'inscrire | Disclaimer

   EN    FR    IT 

 










Légende :    VFR   VFR Marginal   IFR   IFR Intensif   IFR Très Intensif
Visi : 
Plafond : 
>= 8 km
>= 3000ft
5 à 8 km
1000 à 3000 ft
1500m à 5 km
500 à 1000 ft
800 à 1500m
200 à 500 ft
< 800m
< 200 ft
Symboles :   Orages  Brouillard  Fortes neiges  Fortes précipitations  Vent > 20 kt
SIGMETs :   Divers  Orages  Givrage  Turbulence  Onde Orograph.  Cendres Volcan.






- Altitude de l'aérodrome : 106 ft
- Code IATA : NRN


EDLV - Weeze

DERNIER METAR :
  • 170420Z 17004KT 130V230 CAVOK 14/14 Q1009

METARs EXPIRÉS :
  • 170350Z 16004KT CAVOK 14/14 Q1009
  • 170320Z 16004KT CAVOK 14/13 Q1009
  • 170250Z 16004KT 9000 NSC 14/13 Q1009
  • 170220Z AUTO 16004KT 9999 // FEW051/// SCT087/// OVC150/// 14/13 Q1009
  • 170150Z AUTO 17004KT 9999 // FEW055/// OVC150/// 14/13 Q1009
  • 170120Z AUTO 16004KT 9999 // FEW086/// OVC150/// 14/13 Q1009
  • 170050Z AUTO 18005KT 9999 // FEW077/// OVC150/// 14/13 Q1009
  • 170020Z AUTO 17005KT 9999 // FEW056/// BKN085/// OVC150/// 14/13 Q1009
  • 162350Z AUTO 17005KT 9999 // BKN087/// BKN150/// OVC170/// 14/13 Q1009

TAF TAF EDLV
Valide du 17 à 04h jusqu'au 18 à 00h UTC


170320Z 1704/1724 19004KT 9999 BKN040
TEMPO 1705/1709 4500 SHRA BKN014CB
BECMG 1707/1710 25007KT
PROB40
TEMPO 1711/1716 24012KT SHRA BKN025CB
BECMG 1717/1719 VRB02KT



MET'MAP, la Météo Aéronautique d'un coup d'oeil ! - Copyright ORBIFLY Décembre 2007 - Disclaimer

ORBIFLY MET'MAP TEAM :

Programmation & Développement : Alexandra Zaïnal
Sur une idée originale de : Baudouin d'Aumeries
Soutien technique & logistique : Manuel Goepfert
Assistance : Marc-Olivier Méhu




SOURCES & CREDITS :

   NOAA